Time,TemperatureF,DewpointF,PressureIn,WindDirection,WindDirectionDegrees,WindSpeedMPH,WindSpeedGustMPH,Humidity,HourlyPrecipIn,Conditions,Clouds,dailyrainin,SoftwareType,DateUTC
2013-03-11 00:00:00,65.7,54.8,17.72,ENE,57,2.7,2.7,68,0.00,,,0.00,VWS V14.01,2013-03-11 04:00:00,
2013-03-11 00:04:00,65.5,54.7,17.72,SE,133,2.7,2.7,68,0.00,,,0.00,VWS V14.01,2013-03-11 04:04:00,
2013-03-11 00:05:00,65.5,54.7,17.72,SE,133,0.0,2.7,68,0.00,,,0.00,VWS V14.01,2013-03-11 04:05:00,
2013-03-11 00:09:00,65.3,54.5,17.72,SSE,147,0.0,0.0,68,0.00,,,0.00,VWS V14.01,2013-03-11 04:09:00,
2013-03-11 00:14:00,65.3,54.9,17.72,ESE,110,0.0,4.9,69,0.00,,,0.00,VWS V14.01,2013-03-11 04:14:00,
2013-03-11 00:20:00,65.1,54.7,17.72,ESE,107,0.0,0.0,69,0.00,,,0.00,VWS V14.01,2013-03-11 04:20:00,
2013-03-11 00:27:00,64.9,54.5,17.72,ESE,122,0.0,2.7,69,0.00,,,0.00,VWS V14.01,2013-03-11 04:27:00,
2013-03-11 00:33:00,64.9,54.5,17.72,East,92,2.2,2.7,69,0.00,,,0.00,VWS V14.01,2013-03-11 04:33:00,
2013-03-11 00:39:00,64.8,54.8,17.72,ESE,114,3.6,3.6,70,0.00,,,0.00,VWS V14.01,2013-03-11 04:39:00,
2013-03-11 00:44:00,64.6,54.6,17.72,SE,142,3.6,3.6,70,0.00,,,0.00,VWS V14.01,2013-03-11 04:44:00,
2013-03-11 00:50:00,64.4,54.4,17.72,ESE,119,0.0,0.0,70,0.00,,,0.00,VWS V14.01,2013-03-11 04:50:00,
2013-03-11 00:55:00,64.4,54.4,17.72,SE,131,5.8,5.8,70,0.00,,,0.00,VWS V14.01,2013-03-11 04:55:00,
2013-03-11 01:01:00,64.2,54.6,17.72,ESE,102,0.0,0.0,71,0.00,,,0.00,VWS V14.01,2013-03-11 05:01:00,
2013-03-11 01:08:00,64.2,54.6,17.72,ESE,112,0.0,3.6,71,0.00,,,0.00,VWS V14.01,2013-03-11 05:08:00,
2013-03-11 01:14:00,64.0,54.8,17.72,ESE,119,2.7,3.6,72,0.00,,,0.00,VWS V14.01,2013-03-11 05:14:00,
2013-03-11 01:19:00,63.9,54.7,17.72,SSE,147,0.0,0.0,72,0.00,,,0.00,VWS V14.01,2013-03-11 05:19:00,
2013-03-11 01:24:00,63.9,54.7,17.72,SSE,167,0.0,0.0,72,0.00,,,0.00,VWS V14.01,2013-03-11 05:24:00,
2013-03-11 01:29:00,63.9,54.7,17.72,ESE,119,0.0,0.0,72,0.00,,,0.00,VWS V14.01,2013-03-11 05:29:00,
2013-03-11 01:35:00,63.7,54.5,17.72,East,97,0.0,0.0,72,0.00,,,0.00,VWS V14.01,2013-03-11 05:35:00,
2013-03-11 01:40:00,63.7,54.9,17.72,ESE,122,0.0,0.0,73,0.00,,,0.00,VWS V14.01,2013-03-11 05:40:00,
2013-03-11 01:47:00,63.5,54.7,17.72,East,97,0.0,0.0,73,0.00,,,0.00,VWS V14.01,2013-03-11 05:47:00,
2013-03-11 01:52:00,63.5,54.7,17.72,ESE,123,0.0,0.0,73,0.00,,,0.00,VWS V14.01,2013-03-11 05:52:00,
2013-03-11 01:57:00,63.5,54.7,17.72,SE,136,0.0,0.0,73,0.00,,,0.00,VWS V14.01,2013-03-11 05:57:00,
2013-03-11 02:02:00,63.5,54.7,17.72,ESE,120,0.0,0.0,73,0.00,,,0.00,VWS V14.01,2013-03-11 06:02:00,
2013-03-11 02:08:00,63.3,54.5,17.72,SE,126,0.0,0.0,73,0.00,,,0.00,VWS V14.01,2013-03-11 06:08:00,
2013-03-11 02:14:00,63.3,54.5,17.72,SE,126,0.0,0.0,73,0.00,,,0.00,VWS V14.01,2013-03-11 06:14:00,
2013-03-11 02:19:00,63.1,54.3,17.72,SE,126,0.0,0.0,73,0.00,,,0.00,VWS V14.01,2013-03-11 06:19:00,
2013-03-11 02:25:00,63.0,54.2,17.72,SE,126,0.0,0.0,73,0.00,,,0.00,VWS V14.01,2013-03-11 06:25:00,
2013-03-11 02:30:00,63.0,54.2,17.72,SE,126,0.0,0.0,73,0.00,,,0.00,VWS V14.01,2013-03-11 06:30:00,
2013-03-11 02:35:00,63.0,54.2,17.72,SE,126,0.0,0.0,73,0.00,,,0.00,VWS V14.01,2013-03-11 06:35:00,
2013-03-11 02:40:00,62.8,54.4,17.72,SE,126,0.0,0.0,74,0.00,,,0.00,VWS V14.01,2013-03-11 06:40:00,
2013-03-11 02:47:00,62.6,54.2,17.72,SE,126,0.0,0.0,74,0.00,,,0.00,VWS V14.01,2013-03-11 06:47:00,
2013-03-11 02:53:00,62.4,54.4,17.72,SE,126,0.0,0.0,75,0.00,,,0.00,VWS V14.01,2013-03-11 06:53:00,
2013-03-11 02:59:00,62.4,54.0,17.72,SE,126,0.0,0.0,74,0.00,,,0.00,VWS V14.01,2013-03-11 06:59:00,
2013-03-11 03:04:00,62.2,54.2,17.72,SE,126,0.0,0.0,75,0.00,,,0.00,VWS V14.01,2013-03-11 07:04:00,
2013-03-11 03:09:00,62.1,54.0,17.72,SE,126,0.0,0.0,75,0.00,,,0.00,VWS V14.01,2013-03-11 07:09:00,
2013-03-11 03:15:00,61.9,54.2,17.72,SE,126,0.0,0.0,76,0.00,,,0.00,VWS V14.01,2013-03-11 07:15:00,
2013-03-11 03:22:00,61.5,54.2,17.72,SE,126,0.0,0.0,77,0.00,,,0.00,VWS V14.01,2013-03-11 07:22:00,
2013-03-11 03:28:00,61.3,54.1,17.72,SE,126,0.0,0.0,77,0.00,,,0.00,VWS V14.01,2013-03-11 07:28:00,
2013-03-11 03:34:00,61.3,54.1,17.72,SE,126,0.0,0.0,77,0.00,,,0.00,VWS V14.01,2013-03-11 07:34:00,
2013-03-11 03:39:00,61.2,53.9,17.72,SE,126,0.0,0.0,77,0.00,,,0.00,VWS V14.01,2013-03-11 07:39:00,
2013-03-11 03:45:00,61.0,54.1,17.72,SE,126,0.0,0.0,78,0.00,,,0.00,VWS V14.01,2013-03-11 07:45:00,
2013-03-11 03:50:00,61.0,54.1,17.72,SE,126,0.0,0.0,78,0.00,,,0.00,VWS V14.01,2013-03-11 07:50:00,
2013-03-11 03:56:00,61.0,54.1,17.72,SE,126,0.0,0.0,78,0.00,,,0.00,VWS V14.01,2013-03-11 07:56:00,
2013-03-11 04:02:00,60.8,53.9,17.72,SE,126,0.0,0.0,78,0.00,,,0.00,VWS V14.01,2013-03-11 08:02:00,
2013-03-11 04:07:00,60.8,53.9,17.72,SE,126,0.0,0.0,78,0.00,,,0.00,VWS V14.01,2013-03-11 08:07:00,
2013-03-11 04:12:00,61.0,54.1,17.72,SE,126,0.0,0.0,78,0.00,,,0.00,VWS V14.01,2013-03-11 08:12:00,
2013-03-11 04:18:00,60.8,54.3,17.72,SE,126,0.0,0.0,79,0.00,,,0.00,VWS V14.01,2013-03-11 08:18:00,
2013-03-11 04:24:00,60.8,54.3,17.72,SE,126,0.0,0.0,79,0.00,,,0.00,VWS V14.01,2013-03-11 08:24:00,
2013-03-11 04:29:00,60.8,54.3,17.72,SE,126,0.0,0.0,79,0.00,,,0.00,VWS V14.01,2013-03-11 08:29:00,
2013-03-11 04:35:00,60.8,54.3,17.72,SE,126,0.0,0.0,79,0.00,,,0.00,VWS V14.01,2013-03-11 08:35:00,
2013-03-11 04:40:00,60.8,54.3,17.72,SE,126,0.0,0.0,79,0.00,,,0.00,VWS V14.01,2013-03-11 08:40:00,
2013-03-11 04:45:00,60.8,54.3,17.72,SE,126,0.0,0.0,79,0.00,,,0.00,VWS V14.01,2013-03-11 08:45:00,
2013-03-11 04:52:00,60.6,54.4,17.72,SE,126,0.0,0.0,80,0.00,,,0.00,VWS V14.01,2013-03-11 08:52:00,
2013-03-11 04:58:00,60.6,54.4,17.72,SE,126,0.0,0.0,80,0.00,,,0.00,VWS V14.01,2013-03-11 08:58:00,
2013-03-11 05:03:00,60.4,54.2,17.72,SE,126,0.0,0.0,80,0.00,,,0.00,VWS V14.01,2013-03-11 09:03:00,
2013-03-11 05:09:00,60.4,54.6,17.72,SE,126,0.0,0.0,81,0.00,,,0.00,VWS V14.01,2013-03-11 09:09:00,
2013-03-11 05:15:00,60.4,54.6,17.72,SE,126,0.0,0.0,81,0.00,,,0.00,VWS V14.01,2013-03-11 09:15:00,
2013-03-11 05:22:00,60.4,54.6,17.72,SE,126,0.0,0.0,81,0.00,,,0.00,VWS V14.01,2013-03-11 09:22:00,
2013-03-11 05:27:00,60.6,54.8,17.72,SE,126,0.0,0.0,81,0.00,,,0.00,VWS V14.01,2013-03-11 09:27:00,
2013-03-11 05:32:00,60.4,54.9,17.72,SE,126,0.0,0.0,82,0.00,,,0.00,VWS V14.01,2013-03-11 09:32:00,
2013-03-11 05:37:00,60.4,54.9,17.72,SE,126,0.0,0.0,82,0.00,,,0.00,VWS V14.01,2013-03-11 09:37:00,
2013-03-11 05:42:00,60.4,54.9,17.72,SE,126,0.0,0.0,82,0.00,,,0.00,VWS V14.01,2013-03-11 09:42:00,
2013-03-11 05:48:00,60.4,54.9,17.72,SE,126,0.0,0.0,82,0.00,,,0.00,VWS V14.01,2013-03-11 09:48:00,
2013-03-11 05:54:00,60.4,54.9,17.72,SE,126,0.0,0.0,82,0.00,,,0.00,VWS V14.01,2013-03-11 09:54:00,
2013-03-11 05:59:00,60.4,54.9,17.72,SE,126,0.0,0.0,82,0.00,,,0.00,VWS V14.01,2013-03-11 09:59:00,
2013-03-11 06:05:00,60.4,54.9,17.72,SE,126,0.0,0.0,82,0.00,,,0.00,VWS V14.01,2013-03-11 10:05:00,
2013-03-11 06:10:00,60.4,54.9,17.72,SE,126,0.0,0.0,82,0.00,,,0.00,VWS V14.01,2013-03-11 10:10:00,
2013-03-11 06:15:00,60.4,55.3,17.72,NE,49,0.0,0.0,83,0.00,,,0.00,VWS V14.01,2013-03-11 10:15:00,
2013-03-11 06:20:00,60.4,55.3,17.72,NE,49,0.0,0.0,83,0.00,,,0.00,VWS V14.01,2013-03-11 10:20:00,
2013-03-11 06:25:00,60.4,55.3,17.72,NE,49,0.0,0.0,83,0.00,,,0.00,VWS V14.01,2013-03-11 10:25:00,
2013-03-11 06:30:00,60.4,55.3,17.72,NE,49,0.0,0.0,83,0.00,,,0.00,VWS V14.01,2013-03-11 10:30:00,
2013-03-11 06:35:00,60.4,55.3,17.72,NE,49,0.0,0.0,83,0.00,,,0.00,VWS V14.01,2013-03-11 10:35:00,
2013-03-11 06:40:00,60.3,55.1,17.72,NE,49,0.0,0.0,83,0.00,,,0.00,VWS V14.01,2013-03-11 10:40:00,
2013-03-11 06:47:00,60.3,55.1,17.72,NE,49,0.0,0.0,83,0.00,,,0.00,VWS V14.01,2013-03-11 10:47:00,
2013-03-11 06:52:00,60.3,55.1,17.72,NE,49,0.0,0.0,83,0.00,,,0.00,VWS V14.01,2013-03-11 10:52:00,
2013-03-11 06:58:00,60.3,55.1,17.72,NE,49,0.0,0.0,83,0.00,,,0.00,VWS V14.01,2013-03-11 10:58:00,
2013-03-11 07:03:00,60.3,55.1,17.72,NE,49,0.0,0.0,83,0.00,,,0.00,VWS V14.01,2013-03-11 11:03:00,
2013-03-11 07:08:00,60.3,55.4,17.72,NE,49,0.0,0.0,84,0.00,,,0.00,VWS V14.01,2013-03-11 11:08:00,
2013-03-11 07:13:00,60.3,55.4,17.72,NE,49,0.0,0.0,84,0.00,,,0.00,VWS V14.01,2013-03-11 11:13:00,
2013-03-11 07:19:00,60.3,55.4,17.72,NE,49,0.0,0.0,84,0.00,,,0.00,VWS V14.01,2013-03-11 11:19:00,
2013-03-11 07:25:00,60.3,55.4,17.72,NE,49,0.0,0.0,84,0.00,,,0.00,VWS V14.01,2013-03-11 11:25:00,
2013-03-11 07:30:00,60.3,55.4,17.72,NE,49,0.0,0.0,84,0.00,,,0.00,VWS V14.01,2013-03-11 11:30:00,
2013-03-11 07:37:00,60.3,55.4,17.72,NE,49,0.0,0.0,84,0.00,,,0.00,VWS V14.01,2013-03-11 11:37:00,
2013-03-11 07:42:00,60.3,55.4,17.72,NE,49,0.0,0.0,84,0.00,,,0.00,VWS V14.01,2013-03-11 11:42:00,
2013-03-11 07:47:00,60.3,55.4,17.72,NE,49,0.0,0.0,84,0.00,,,0.00,VWS V14.01,2013-03-11 11:47:00,
2013-03-11 07:53:00,60.3,55.7,17.72,NE,49,0.0,0.0,85,0.00,,,0.00,VWS V14.01,2013-03-11 11:53:00,
2013-03-11 07:58:00,60.3,55.7,17.72,NE,49,0.0,0.0,85,0.00,,,0.00,VWS V14.01,2013-03-11 11:58:00,
2013-03-11 08:04:00,60.4,55.9,17.72,NE,49,0.0,0.0,85,0.00,,,0.00,VWS V14.01,2013-03-11 12:04:00,
2013-03-11 08:09:00,60.6,56.1,17.72,NE,49,0.0,0.0,85,0.00,,,0.00,VWS V14.01,2013-03-11 12:09:00,
2013-03-11 08:14:00,60.8,55.9,17.72,East,86,0.0,0.0,84,0.00,,,0.00,VWS V14.01,2013-03-11 12:14:00,
2013-03-11 08:19:00,61.0,56.5,17.72,ENE,67,0.0,0.0,85,0.00,,,0.00,VWS V14.01,2013-03-11 12:19:00,
2013-03-11 08:24:00,61.2,56.6,17.72,ENE,70,0.0,0.0,85,0.00,,,0.00,VWS V14.01,2013-03-11 12:24:00,
2013-03-11 08:30:00,61.3,56.8,17.72,ESE,119,0.0,0.0,85,0.00,,,0.00,VWS V14.01,2013-03-11 12:30:00,
2013-03-11 08:35:00,61.5,57.0,17.72,SE,126,2.2,3.6,85,0.00,,,0.00,VWS V14.01,2013-03-11 12:35:00,
2013-03-11 08:40:00,61.9,57.3,17.72,ESE,112,3.1,3.6,85,0.00,,,0.00,VWS V14.01,2013-03-11 12:40:00,
2013-03-11 08:45:00,62.1,57.5,17.72,East,91,0.0,0.0,85,0.00,,,0.00,VWS V14.01,2013-03-11 12:45:00,
2013-03-11 08:50:00,62.2,57.7,17.72,SE,145,0.0,0.0,85,0.00,,,0.00,VWS V14.01,2013-03-11 12:50:00,
2013-03-11 08:57:00,62.6,58.0,17.72,ESE,117,0.0,0.0,85,0.00,,,0.00,VWS V14.01,2013-03-11 12:57:00,
2013-03-11 09:02:00,63.0,58.4,17.72,ESE,109,5.4,5.4,85,0.00,,,0.00,VWS V14.01,2013-03-11 13:02:00,
2013-03-11 09:08:00,63.5,58.9,17.72,ESE,119,7.6,7.6,85,0.00,,,0.00,VWS V14.01,2013-03-11 13:08:00,
2013-03-11 09:13:00,63.9,59.3,17.72,ENE,61,0.0,3.1,85,0.00,,,0.00,VWS V14.01,2013-03-11 13:13:00,
2013-03-11 09:18:00,64.2,59.3,17.72,ESE,112,3.1,3.1,84,0.00,,,0.00,VWS V14.01,2013-03-11 13:18:00,
2013-03-11 09:23:00,64.8,59.8,17.72,ESE,112,3.1,3.1,84,0.00,,,0.00,VWS V14.01,2013-03-11 13:23:00,
2013-03-11 09:28:00,65.1,60.2,17.72,ESE,123,4.0,4.9,84,0.00,,,0.00,VWS V14.01,2013-03-11 13:28:00,
2013-03-11 09:33:00,65.7,60.4,17.72,South,180,3.1,3.1,83,0.00,,,0.00,VWS V14.01,2013-03-11 13:33:00,
2013-03-11 09:39:00,66.2,60.5,17.72,ESE,119,3.6,5.4,82,0.00,,,0.00,VWS V14.01,2013-03-11 13:39:00,
2013-03-11 09:44:00,66.6,60.9,17.72,SSE,154,0.0,5.8,82,0.00,,,0.00,VWS V14.01,2013-03-11 13:44:00,
2013-03-11 09:49:00,66.9,60.9,17.72,NE,53,6.3,6.3,81,0.00,,,0.00,VWS V14.01,2013-03-11 13:49:00,
2013-03-11 09:54:00,67.5,61.4,17.72,SE,126,0.0,4.0,81,0.00,,,0.00,VWS V14.01,2013-03-11 13:54:00,
2013-03-11 10:00:00,68.2,61.8,17.72,South,169,3.1,6.3,80,0.00,,,0.00,VWS V14.01,2013-03-11 14:00:00,
2013-03-11 10:05:00,68.7,62.0,17.72,ESE,106,0.0,4.0,79,0.00,,,0.00,VWS V14.01,2013-03-11 14:05:00,
2013-03-11 10:10:00,69.3,62.1,17.72,ESE,104,0.0,0.0,78,0.00,,,0.00,VWS V14.01,2013-03-11 14:10:00,
2013-03-11 10:17:00,69.8,61.9,17.72,ESE,105,3.6,5.4,76,0.00,,,0.00,VWS V14.01,2013-03-11 14:17:00,
2013-03-11 10:23:00,70.2,61.5,17.72,NE,51,2.7,2.7,74,0.00,,,0.00,VWS V14.01,2013-03-11 14:23:00,
2013-03-11 10:28:00,70.5,61.1,17.72,SE,131,6.3,8.1,72,0.00,,,0.00,VWS V14.01,2013-03-11 14:28:00,
2013-03-11 10:34:00,70.9,61.0,17.72,SSE,161,5.8,8.1,71,0.00,,,0.00,VWS V14.01,2013-03-11 14:34:00,
2013-03-11 10:39:00,71.6,61.3,17.72,ENE,57,2.7,5.8,70,0.00,,,0.00,VWS V14.01,2013-03-11 14:39:00,
2013-03-11 10:44:00,72.0,61.2,17.72,SE,145,6.3,6.3,69,0.00,,,0.00,VWS V14.01,2013-03-11 14:44:00,
2013-03-11 10:49:00,72.5,61.3,17.72,SW,236,4.0,8.3,68,0.00,,,0.00,VWS V14.01,2013-03-11 14:49:00,
2013-03-11 10:54:00,73.0,61.5,17.72,ENE,65,6.3,8.1,67,0.00,,,0.00,VWS V14.01,2013-03-11 14:54:00,
2013-03-11 10:59:00,73.2,60.8,17.72,SE,136,5.4,6.3,65,0.00,,,0.00,VWS V14.01,2013-03-11 14:59:00,
2013-03-11 11:04:00,73.6,60.7,17.72,SSE,162,6.3,8.1,64,0.00,,,0.00,VWS V14.01,2013-03-11 15:04:00,
2013-03-11 11:10:00,73.9,60.6,17.72,East,100,4.5,8.7,63,0.00,,,0.00,VWS V14.01,2013-03-11 15:10:00,
2013-03-11 11:16:00,74.5,60.6,17.72,ENE,72,8.3,8.3,62,0.00,,,0.00,VWS V14.01,2013-03-11 15:16:00,
2013-03-11 11:22:00,74.8,60.0,17.72,SE,126,5.8,8.1,60,0.00,,,0.00,VWS V14.01,2013-03-11 15:22:00,
2013-03-11 11:27:00,74.8,60.0,17.72,SE,126,8.1,8.1,60,0.00,,,0.00,VWS V14.01,2013-03-11 15:27:00,
2013-03-11 11:32:00,75.4,59.6,17.72,SSE,164,6.3,8.3,58,0.00,,,0.00,VWS V14.01,2013-03-11 15:32:00,
2013-03-11 11:38:00,75.4,59.1,17.72,South,175,8.7,8.7,57,0.00,,,0.00,VWS V14.01,2013-03-11 15:38:00,
2013-03-11 11:43:00,75.7,59.0,17.72,South,184,6.7,8.1,56,0.00,,,0.00,VWS V14.01,2013-03-11 15:43:00,
2013-03-11 11:48:00,76.6,58.8,17.72,ESE,123,6.3,6.3,54,0.00,,,0.00,VWS V14.01,2013-03-11 15:48:00,
2013-03-11 11:53:00,77.0,58.6,17.72,ESE,107,2.2,4.0,53,0.00,,,0.00,VWS V14.01,2013-03-11 15:53:00,
2013-03-11 11:59:00,77.5,58.5,17.72,East,90,5.8,6.3,52,0.00,,,0.00,VWS V14.01,2013-03-11 15:59:00,
2013-03-11 12:04:00,78.1,59.0,17.72,South,187,6.3,10.5,52,0.00,,,0.00,VWS V14.01,2013-03-11 16:04:00,
2013-03-11 12:10:00,78.1,58.5,17.72,ESE,121,7.6,10.5,51,0.00,,,0.00,VWS V14.01,2013-03-11 16:10:00,
2013-03-11 12:15:00,77.5,58.0,17.72,East,100,8.7,8.7,51,0.00,,,0.00,VWS V14.01,2013-03-11 16:15:00,
2013-03-11 12:20:00,77.4,57.8,17.72,ESE,104,3.1,6.3,51,0.00,,,0.00,VWS V14.01,2013-03-11 16:20:00,
2013-03-11 12:26:00,77.7,57.6,17.72,ESE,122,12.8,12.8,50,0.00,,,0.00,VWS V14.01,2013-03-11 16:26:00,
2013-03-11 12:32:00,78.1,57.4,17.72,SSW,199,3.6,3.6,49,0.00,,,0.00,VWS V14.01,2013-03-11 16:32:00,
2013-03-11 12:37:00,77.9,57.2,17.72,ESE,116,5.4,5.8,49,0.00,,,0.00,VWS V14.01,2013-03-11 16:37:00,
2013-03-11 12:42:00,77.9,57.8,17.72,WNW,282,3.1,5.4,50,0.00,,,0.00,VWS V14.01,2013-03-11 16:42:00,
2013-03-11 12:48:00,77.9,57.8,17.72,SE,144,8.1,8.1,50,0.00,,,0.00,VWS V14.01,2013-03-11 16:48:00,
2013-03-11 12:54:00,79.3,58.0,17.72,South,175,8.1,8.1,48,0.00,,,0.00,VWS V14.01,2013-03-11 16:54:00,
2013-03-11 12:59:00,79.5,58.1,17.72,SW,230,3.1,10.1,48,0.00,,,0.00,VWS V14.01,2013-03-11 16:59:00,
2013-03-11 13:05:00,80.4,59.0,17.72,SE,141,5.4,8.7,48,0.00,,,0.00,VWS V14.01,2013-03-11 17:05:00,
2013-03-11 13:10:00,80.1,58.0,17.72,East,94,0.0,3.6,47,0.00,,,0.00,VWS V14.01,2013-03-11 17:10:00,
2013-03-11 13:15:00,79.3,57.4,17.72,ENE,73,4.9,5.8,47,0.00,,,0.00,VWS V14.01,2013-03-11 17:15:00,
2013-03-11 13:20:00,79.3,58.0,17.72,SW,225,4.5,8.7,48,0.00,,,0.00,VWS V14.01,2013-03-11 17:20:00,
2013-03-11 13:27:00,78.8,57.5,17.72,West,267,4.9,8.3,48,0.00,,,0.00,VWS V14.01,2013-03-11 17:27:00,
2013-03-11 13:33:00,78.1,57.4,17.72,NW,321,5.8,5.8,49,0.00,,,0.00,VWS V14.01,2013-03-11 17:33:00,
2013-03-11 13:38:00,77.7,57.1,17.72,SSE,167,3.1,11.0,49,0.00,,,0.00,VWS V14.01,2013-03-11 17:38:00,
2013-03-11 13:44:00,77.7,56.5,17.72,SW,227,3.6,5.4,48,0.00,,,0.00,VWS V14.01,2013-03-11 17:44:00,
2013-03-11 13:49:00,78.6,57.3,17.72,WSW,241,3.1,11.9,48,0.00,,,0.00,VWS V14.01,2013-03-11 17:49:00,
2013-03-11 13:55:00,79.0,57.0,17.72,WSW,238,10.1,10.1,47,0.00,,,0.00,VWS V14.01,2013-03-11 17:55:00,
2013-03-11 14:01:00,79.2,57.2,17.72,WSW,249,5.4,7.6,47,0.00,,,0.00,VWS V14.01,2013-03-11 18:01:00,
2013-03-11 14:07:00,78.3,57.0,17.72,West,270,9.6,9.6,48,0.00,,,0.00,VWS V14.01,2013-03-11 18:07:00,
2013-03-11 14:12:00,77.9,56.7,17.72,WSW,245,8.7,8.7,48,0.00,,,0.00,VWS V14.01,2013-03-11 18:12:00,
2013-03-11 14:17:00,78.3,57.0,17.72,SW,220,10.1,10.1,48,0.00,,,0.00,VWS V14.01,2013-03-11 18:17:00,
2013-03-11 14:22:00,78.3,57.0,17.72,West,281,2.7,7.6,48,0.00,,,0.00,VWS V14.01,2013-03-11 18:22:00,
2013-03-11 14:28:00,79.7,57.7,17.72,SSE,162,3.1,8.3,47,0.00,,,0.00,VWS V14.01,2013-03-11 18:28:00,
2013-03-11 14:33:00,79.5,57.0,17.72,SSW,213,11.4,12.8,46,0.00,,,0.00,VWS V14.01,2013-03-11 18:33:00,
2013-03-11 14:38:00,79.3,56.8,17.72,ESE,122,4.0,7.6,46,0.00,,,0.00,VWS V14.01,2013-03-11 18:38:00,
2013-03-11 14:43:00,79.5,57.0,17.72,West,278,4.0,6.3,46,0.00,,,0.00,VWS V14.01,2013-03-11 18:43:00,
2013-03-11 14:48:00,79.5,56.3,17.72,SW,219,11.0,11.0,45,0.00,,,0.00,VWS V14.01,2013-03-11 18:48:00,
2013-03-11 14:54:00,79.5,56.3,17.72,WSW,247,3.6,9.6,45,0.00,,,0.00,VWS V14.01,2013-03-11 18:54:00,
2013-03-11 15:00:00,79.9,56.7,17.72,SW,232,5.8,10.1,45,0.00,,,0.00,VWS V14.01,2013-03-11 19:00:00,
2013-03-11 15:05:00,79.9,57.3,17.72,South,180,5.8,8.7,46,0.00,,,0.00,VWS V14.01,2013-03-11 19:05:00,
2013-03-11 15:11:00,80.1,57.4,17.72,WNW,297,4.9,4.9,46,0.00,,,0.00,VWS V14.01,2013-03-11 19:11:00,
2013-03-11 15:17:00,80.1,58.0,17.72,WSW,242,5.8,8.3,47,0.00,,,0.00,VWS V14.01,2013-03-11 19:17:00,
2013-03-11 15:22:00,79.7,57.7,17.72,SW,230,4.0,4.5,47,0.00,,,0.00,VWS V14.01,2013-03-11 19:22:00,
2013-03-11 15:27:00,79.5,57.5,17.72,SSW,208,8.3,10.1,47,0.00,,,0.00,VWS V14.01,2013-03-11 19:27:00,
2013-03-11 15:32:00,79.3,57.4,17.72,NNW,330,3.1,6.3,47,0.00,,,0.00,VWS V14.01,2013-03-11 19:32:00,
2013-03-11 15:38:00,79.2,57.8,17.72,WSW,248,3.1,11.0,48,0.00,,,0.00,VWS V14.01,2013-03-11 19:38:00,
2013-03-11 15:43:00,79.7,58.3,17.72,SW,215,3.1,8.7,48,0.00,,,0.00,VWS V14.01,2013-03-11 19:43:00,
2013-03-11 15:49:00,80.2,58.8,17.72,West,260,12.3,12.3,48,0.00,,,0.00,VWS V14.01,2013-03-11 19:49:00,
2013-03-11 15:54:00,80.1,58.0,17.72,SSE,155,3.6,6.3,47,0.00,,,0.00,VWS V14.01,2013-03-11 19:54:00,
2013-03-11 15:59:00,79.9,57.9,17.72,SW,221,6.3,9.6,47,0.00,,,0.00,VWS V14.01,2013-03-11 19:59:00,
2013-03-11 16:04:00,79.7,57.1,17.72,West,272,7.6,7.6,46,0.00,,,0.00,VWS V14.01,2013-03-11 20:04:00,
2013-03-11 16:09:00,79.5,57.0,17.72,SSW,197,3.6,8.1,46,0.00,,,0.00,VWS V14.01,2013-03-11 20:09:00,
2013-03-11 16:14:00,79.9,57.9,17.72,SSW,198,10.1,10.1,47,0.00,,,0.00,VWS V14.01,2013-03-11 20:14:00,
2013-03-11 16:20:00,80.1,58.0,17.72,SSW,209,3.6,5.8,47,0.00,,,0.00,VWS V14.01,2013-03-11 20:20:00,
2013-03-11 16:25:00,80.1,57.4,17.72,SSW,197,3.6,11.0,46,0.00,,,0.00,VWS V14.01,2013-03-11 20:25:00,
2013-03-11 16:31:00,79.5,57.0,17.72,SW,235,4.0,4.0,46,0.00,,,0.00,VWS V14.01,2013-03-11 20:31:00,
2013-03-11 16:37:00,79.5,57.0,17.72,SSE,159,7.6,8.1,46,0.00,,,0.00,VWS V14.01,2013-03-11 20:37:00,
2013-03-11 16:42:00,79.5,57.0,17.72,SSE,168,7.6,11.0,46,0.00,,,0.00,VWS V14.01,2013-03-11 20:42:00,
2013-03-11 16:48:00,79.9,57.3,17.72,SW,236,8.7,8.7,46,0.00,,,0.00,VWS V14.01,2013-03-11 20:48:00,
2013-03-11 16:53:00,79.9,57.3,17.72,SSE,163,4.9,6.3,46,0.00,,,0.00,VWS V14.01,2013-03-11 20:53:00,
2013-03-11 16:59:00,80.1,57.4,17.72,West,260,10.1,10.1,46,0.00,,,0.00,VWS V14.01,2013-03-11 20:59:00,
2013-03-11 17:04:00,79.9,57.3,17.72,SSW,198,4.9,10.1,46,0.00,,,0.00,VWS V14.01,2013-03-11 21:04:00,
2013-03-11 17:10:00,79.7,57.1,17.72,South,178,6.3,12.3,46,0.00,,,0.00,VWS V14.01,2013-03-11 21:10:00,
2013-03-11 17:15:00,79.3,56.2,17.72,WSW,245,11.4,17.0,45,0.00,,,0.00,VWS V14.01,2013-03-11 21:15:00,
2013-03-11 17:22:00,80.2,57.0,17.72,WSW,241,6.3,10.1,45,0.00,,,0.00,VWS V14.01,2013-03-11 21:22:00,
2013-03-11 17:27:00,81.5,57.5,17.72,SE,133,10.1,13.2,44,0.00,,,0.00,VWS V14.01,2013-03-11 21:27:00,
2013-03-11 17:32:00,81.7,57.7,17.72,West,264,8.1,10.5,44,0.00,,,0.00,VWS V14.01,2013-03-11 21:32:00,
2013-03-11 17:38:00,83.3,58.5,17.72,SW,221,11.9,11.9,43,0.00,,,0.00,VWS V14.01,2013-03-11 21:38:00,
2013-03-11 17:43:00,83.3,58.5,17.72,SW,219,5.4,14.5,43,0.00,,,0.00,VWS V14.01,2013-03-11 21:43:00,
2013-03-11 17:49:00,83.7,58.8,17.72,WSW,237,6.3,7.6,43,0.00,,,0.00,VWS V14.01,2013-03-11 21:49:00,
2013-03-11 17:55:00,83.5,58.7,17.72,WSW,242,5.4,13.2,43,0.00,,,0.00,VWS V14.01,2013-03-11 21:55:00,
2013-03-11 18:00:00,82.8,58.0,17.72,WNW,285,5.8,8.7,43,0.00,,,0.00,VWS V14.01,2013-03-11 22:00:00,
2013-03-11 18:06:00,81.9,57.2,17.72,SW,223,5.8,10.5,43,0.00,,,0.00,VWS V14.01,2013-03-11 22:06:00,
2013-03-11 18:12:00,80.2,56.4,17.72,West,271,5.8,10.1,44,0.00,,,0.00,VWS V14.01,2013-03-11 22:12:00,
2013-03-11 18:17:00,79.5,56.3,17.72,ESE,118,3.6,6.3,45,0.00,,,0.00,VWS V14.01,2013-03-11 22:17:00,
2013-03-11 18:23:00,79.0,56.5,17.72,SW,222,5.8,5.8,46,0.00,,,0.00,VWS V14.01,2013-03-11 22:23:00,
2013-03-11 18:28:00,78.3,56.4,17.72,WSW,249,3.1,8.1,47,0.00,,,0.00,VWS V14.01,2013-03-11 22:28:00,
2013-03-11 18:34:00,77.9,56.1,17.72,South,184,5.8,7.2,47,0.00,,,0.00,VWS V14.01,2013-03-11 22:34:00,
2013-03-11 18:40:00,77.4,55.6,17.72,SW,218,7.6,10.1,47,0.00,,,0.00,VWS V14.01,2013-03-11 22:40:00,
2013-03-11 18:45:00,77.0,55.2,17.72,SSW,206,8.7,8.7,47,0.00,,,0.00,VWS V14.01,2013-03-11 22:45:00,
2013-03-11 18:50:00,76.5,55.3,17.72,SW,229,4.9,10.5,48,0.00,,,0.00,VWS V14.01,2013-03-11 22:50:00,
2013-03-11 18:55:00,76.1,55.6,17.72,SW,236,6.3,6.3,49,0.00,,,0.00,VWS V14.01,2013-03-11 22:55:00,
2013-03-11 19:00:00,75.6,55.1,17.72,WSW,255,7.6,8.3,49,0.00,,,0.00,VWS V14.01,2013-03-11 23:00:00,
2013-03-11 19:07:00,75.0,55.1,17.72,SSE,163,5.4,5.4,50,0.00,,,0.00,VWS V14.01,2013-03-11 23:07:00,
2013-03-11 19:13:00,74.7,55.3,17.72,West,259,3.1,5.4,51,0.00,,,0.00,VWS V14.01,2013-03-11 23:13:00,
2013-03-11 19:19:00,74.5,55.7,17.72,SSW,200,4.9,8.1,52,0.00,,,0.00,VWS V14.01,2013-03-11 23:19:00,
2013-03-11 19:24:00,74.1,56.4,17.72,SW,226,2.7,5.8,54,0.00,,,0.00,VWS V14.01,2013-03-11 23:24:00,
2013-03-11 19:30:00,73.9,57.8,17.72,West,267,3.1,5.4,57,0.00,,,0.00,VWS V14.01,2013-03-11 23:30:00,
2013-03-11 19:35:00,73.6,58.4,17.72,WSW,245,5.4,6.3,59,0.00,,,0.00,VWS V14.01,2013-03-11 23:35:00,
2013-03-11 19:41:00,73.2,59.0,17.72,WSW,256,0.0,2.7,61,0.00,,,0.00,VWS V14.01,2013-03-11 23:41:00,
2013-03-11 19:47:00,72.9,59.1,17.72,SW,215,2.2,10.5,62,0.00,,,0.00,VWS V14.01,2013-03-11 23:47:00,
2013-03-11 19:52:00,72.7,59.4,17.72,WSW,253,2.2,4.0,63,0.00,,,0.00,VWS V14.01,2013-03-11 23:52:00,
2013-03-11 19:58:00,72.3,59.5,17.72,West,273,3.1,6.3,64,0.00,,,0.00,VWS V14.01,2013-03-11 23:58:00,
2013-03-11 20:03:00,72.3,59.5,17.72,WSW,246,0.0,0.0,64,0.00,,,0.00,VWS V14.01,2013-03-12 00:03:00,
2013-03-11 20:09:00,72.0,59.6,17.72,SSW,199,0.0,2.7,65,0.00,,,0.00,VWS V14.01,2013-03-12 00:09:00,
2013-03-11 20:14:00,72.0,60.0,17.72,South,181,3.6,3.6,66,0.00,,,0.00,VWS V14.01,2013-03-12 00:14:00,
2013-03-11 20:19:00,71.8,59.8,17.72,WSW,246,0.0,6.3,66,0.00,,,0.00,VWS V14.01,2013-03-12 00:19:00,
2013-03-11 20:25:00,71.4,59.9,17.72,WSW,241,5.8,5.8,67,0.00,,,0.00,VWS V14.01,2013-03-12 00:25:00,
2013-03-11 20:30:00,71.2,59.7,17.72,SSW,199,4.0,4.0,67,0.00,,,0.00,VWS V14.01,2013-03-12 00:30:00,
2013-03-11 20:35:00,71.2,60.2,17.72,South,191,3.1,3.6,68,0.00,,,0.00,VWS V14.01,2013-03-12 00:35:00,
2013-03-11 20:40:00,71.1,60.0,17.72,SW,219,2.7,4.9,68,0.00,,,0.00,VWS V14.01,2013-03-12 00:40:00,
2013-03-11 20:45:00,70.9,60.2,17.72,SSE,160,3.6,6.7,69,0.00,,,0.00,VWS V14.01,2013-03-12 00:45:00,
2013-03-11 20:51:00,70.7,60.5,17.72,South,178,8.1,8.1,70,0.00,,,0.00,VWS V14.01,2013-03-12 00:51:00,
2013-03-11 20:56:00,70.7,60.5,17.72,West,264,0.0,0.0,70,0.00,,,0.00,VWS V14.01,2013-03-12 00:56:00,
2013-03-11 21:02:00,70.5,60.7,17.72,South,177,2.7,4.0,71,0.00,,,0.00,VWS V14.01,2013-03-12 01:02:00,
2013-03-11 21:07:00,70.5,60.7,17.72,West,265,0.0,2.7,71,0.00,,,0.00,VWS V14.01,2013-03-12 01:07:00,
2013-03-11 21:12:00,70.3,60.5,17.72,SSE,165,5.4,5.4,71,0.00,,,0.00,VWS V14.01,2013-03-12 01:12:00,
2013-03-11 21:17:00,70.3,60.5,17.72,SE,124,2.2,2.7,71,0.00,,,0.00,VWS V14.01,2013-03-12 01:17:00,
2013-03-11 21:23:00,70.3,60.9,17.72,WSW,257,0.0,3.6,72,0.00,,,0.00,VWS V14.01,2013-03-12 01:23:00,
2013-03-11 21:29:00,70.2,60.7,17.72,WNW,289,0.0,5.8,72,0.00,,,0.00,VWS V14.01,2013-03-12 01:29:00,
2013-03-11 21:34:00,70.0,60.9,17.72,South,170,4.5,4.5,73,0.00,,,0.00,VWS V14.01,2013-03-12 01:34:00,
2013-03-11 21:40:00,69.8,60.8,17.72,SSW,192,0.0,0.0,73,0.00,,,0.00,VWS V14.01,2013-03-12 01:40:00,
2013-03-11 21:45:00,69.8,60.8,17.72,East,91,0.0,3.1,73,0.00,,,0.00,VWS V14.01,2013-03-12 01:45:00,
2013-03-11 21:50:00,69.6,61.0,17.72,SSW,196,0.0,0.0,74,0.00,,,0.00,VWS V14.01,2013-03-12 01:50:00,
2013-03-11 21:56:00,69.6,61.0,17.72,SSE,159,0.0,5.4,74,0.00,,,0.00,VWS V14.01,2013-03-12 01:56:00,
2013-03-11 22:01:00,69.4,60.8,17.72,SSE,159,0.0,0.0,74,0.00,,,0.00,VWS V14.01,2013-03-12 02:01:00,
2013-03-11 22:07:00,69.4,60.8,17.72,SE,131,3.1,5.4,74,0.00,,,0.00,VWS V14.01,2013-03-12 02:07:00,
2013-03-11 22:12:00,69.4,61.2,17.72,SSE,150,0.0,0.0,75,0.00,,,0.00,VWS V14.01,2013-03-12 02:12:00,
2013-03-11 22:18:00,69.4,61.2,17.72,SSE,153,3.6,3.6,75,0.00,,,0.00,VWS V14.01,2013-03-12 02:18:00,
2013-03-11 22:23:00,69.3,61.0,17.72,ESE,120,0.0,0.0,75,0.00,,,0.00,VWS V14.01,2013-03-12 02:23:00,
2013-03-11 22:29:00,69.3,61.0,17.72,ESE,117,0.0,2.7,75,0.00,,,0.00,VWS V14.01,2013-03-12 02:29:00,
2013-03-11 22:34:00,69.1,60.8,17.72,SE,141,4.0,5.4,75,0.00,,,0.00,VWS V14.01,2013-03-12 02:34:00,
2013-03-11 22:39:00,69.3,61.4,17.72,SW,214,5.4,5.4,76,0.00,,,0.00,VWS V14.01,2013-03-12 02:39:00,
2013-03-11 22:44:00,69.3,61.4,17.72,ESE,102,0.0,0.0,76,0.00,,,0.00,VWS V14.01,2013-03-12 02:44:00,
2013-03-11 22:50:00,69.1,61.2,17.72,SE,137,7.2,7.2,76,0.00,,,0.00,VWS V14.01,2013-03-12 02:50:00,
2013-03-11 22:55:00,69.1,61.2,17.72,South,171,0.0,0.0,76,0.00,,,0.00,VWS V14.01,2013-03-12 02:55:00,
2013-03-11 23:02:00,68.9,61.4,17.72,SE,143,0.0,0.0,77,0.00,,,0.00,VWS V14.01,2013-03-12 03:02:00,
2013-03-11 23:08:00,68.9,61.4,17.72,South,178,0.0,3.6,77,0.00,,,0.00,VWS V14.01,2013-03-12 03:08:00,
2013-03-11 23:14:00,68.7,61.2,17.72,SE,127,0.0,0.0,77,0.00,,,0.00,VWS V14.01,2013-03-12 03:14:00,
2013-03-11 23:20:00,68.7,61.2,17.72,SE,130,3.1,3.6,77,0.00,,,0.00,VWS V14.01,2013-03-12 03:20:00,
2013-03-11 23:25:00,68.5,61.0,17.72,South,186,2.7,3.1,77,0.00,,,0.00,VWS V14.01,2013-03-12 03:25:00,
2013-03-11 23:31:00,68.5,61.4,17.72,ESE,111,3.1,3.6,78,0.00,,,0.00,VWS V14.01,2013-03-12 03:31:00,
2013-03-11 23:37:00,68.4,61.2,17.72,SE,127,4.9,4.9,78,0.00,,,0.00,VWS V14.01,2013-03-12 03:37:00,
2013-03-11 23:42:00,68.4,61.2,17.72,SE,136,2.2,3.6,78,0.00,,,0.00,VWS V14.01,2013-03-12 03:42:00,
2013-03-11 23:47:00,68.2,61.4,17.72,South,170,2.2,5.8,79,0.00,,,0.00,VWS V14.01,2013-03-12 03:47:00,
2013-03-11 23:53:00,68.2,61.4,17.72,SE,126,0.0,0.0,79,0.00,,,0.00,VWS V14.01,2013-03-12 03:53:00,
2013-03-11 23:59:00,68.0,61.2,17.72,SSE,166,0.0,3.1,79,0.00,,,0.00,VWS V14.01,2013-03-12 03:59:00,